createdAt,value
2023-02-28T00:04:36.272Z,100.00
2023-02-28T00:09:39.061Z,100.00
2023-02-28T00:14:41.984Z,100.00
2023-02-28T00:19:46.078Z,100.00
2023-02-28T00:24:49.101Z,100.00
2023-02-28T00:29:52.106Z,100.00
2023-02-28T00:35:00.782Z,100.00
2023-02-28T00:40:06.076Z,100.00
2023-02-28T00:45:10.114Z,100.00
2023-02-28T00:50:16.029Z,100.00
2023-02-28T00:55:22.895Z,100.00
2023-02-28T01:00:25.873Z,100.00
2023-02-28T01:05:30.185Z,100.00
2023-02-28T01:10:33.623Z,100.00
2023-02-28T01:15:36.720Z,100.00
2023-02-28T01:20:43.122Z,100.00
2023-02-28T01:25:46.313Z,100.00
2023-02-28T01:30:53.187Z,100.00
2023-02-28T01:36:01.642Z,100.00
2023-02-28T01:41:06.523Z,100.00
2023-02-28T01:46:09.488Z,100.00
2023-02-28T01:51:19.355Z,100.00
2023-02-28T01:56:26.223Z,100.00
2023-02-28T02:01:29.862Z,100.00
2023-02-28T02:06:39.646Z,100.00
2023-02-28T02:11:48.053Z,100.00
2023-02-28T02:17:10.941Z,100.00
2023-02-28T02:22:48.883Z,100.00
2023-02-28T02:28:13.162Z,100.00
2023-02-28T02:33:40.173Z,100.00
2023-02-28T02:38:52.478Z,100.00
2023-02-28T02:44:03.863Z,100.00
2023-02-28T02:49:14.037Z,100.00
2023-02-28T02:54:24.514Z,100.00
2023-02-28T02:59:30.104Z,100.00
2023-02-28T03:04:38.378Z,100.00
2023-02-28T03:09:42.563Z,100.00
2023-02-28T03:14:58.042Z,100.00
2023-02-28T03:20:18.314Z,100.00
2023-02-28T03:25:32.334Z,100.00
2023-02-28T03:30:41.788Z,100.00
2023-02-28T03:35:50.260Z,100.00
2023-02-28T03:41:02.884Z,100.00
2023-02-28T03:46:11.331Z,100.00
2023-02-28T03:51:18.295Z,100.00
2023-02-28T03:56:26.648Z,100.00
2023-02-28T04:01:38.301Z,100.00
2023-02-28T04:06:43.573Z,100.00
2023-02-28T04:11:53.037Z,100.00
2023-02-28T04:16:55.809Z,100.00
2023-02-28T04:21:58.664Z,100.00
2023-02-28T04:27:02.753Z,100.00
2023-02-28T04:32:06.501Z,100.00
2023-02-28T04:37:14.153Z,100.00
2023-02-28T04:42:18.535Z,99.83
2023-02-28T04:47:21.195Z,99.62
2023-02-28T04:52:24.434Z,99.97
2023-02-28T04:57:28.612Z,98.98
2023-02-28T05:02:31.410Z,98.67
2023-02-28T05:07:34.367Z,98.85
2023-02-28T05:12:39.757Z,99.35
2023-02-28T05:17:42.660Z,100.00
2023-02-28T05:22:46.060Z,98.73
2023-02-28T05:27:50.190Z,98.26
2023-02-28T05:32:53.700Z,97.75
2023-02-28T05:37:56.507Z,97.71
2023-02-28T05:43:00.881Z,95.90
2023-02-28T05:48:03.549Z,95.40
2023-02-28T05:53:06.786Z,95.65
2023-02-28T05:58:11.094Z,94.85
2023-02-28T06:03:14.945Z,95.25
2023-02-28T06:08:19.357Z,94.07
2023-02-28T06:13:23.797Z,94.18
2023-02-28T06:18:26.519Z,94.40
2023-02-28T06:23:29.365Z,95.49
2023-02-28T06:28:33.841Z,95.41
2023-02-28T06:33:36.803Z,95.99
2023-02-28T06:38:39.772Z,96.11
2023-02-28T06:43:44.009Z,95.75
2023-02-28T06:48:47.985Z,95.62
2023-02-28T06:53:51.281Z,94.99
2023-02-28T06:58:56.547Z,95.10
2023-02-28T07:03:59.204Z,95.56
2023-02-28T07:09:03.205Z,95.99
2023-02-28T07:14:07.174Z,95.84
2023-02-28T07:19:09.808Z,96.12
2023-02-28T07:24:12.544Z,96.59
2023-02-28T07:29:16.582Z,97.06
2023-02-28T07:34:19.237Z,97.56
2023-02-28T07:39:22.994Z,96.83
2023-02-28T07:44:27.221Z,96.26
2023-02-28T07:49:29.850Z,96.65
2023-02-28T07:54:32.752Z,96.42
2023-02-28T07:59:37.095Z,95.60
2023-02-28T08:04:42.349Z,94.68
2023-02-28T08:09:45.826Z,93.72
2023-02-28T08:14:49.920Z,93.46
2023-02-28T08:19:52.552Z,93.25
2023-02-28T08:24:55.672Z,92.95
2023-02-28T08:29:59.765Z,92.74
2023-02-28T08:35:03.938Z,92.50
2023-02-28T08:40:08.319Z,91.28
2023-02-28T08:45:13.148Z,90.33
2023-02-28T08:50:17.862Z,90.37
2023-02-28T08:55:20.486Z,90.26
2023-02-28T09:00:27.064Z,89.04
2023-02-28T09:05:31.089Z,88.36
2023-02-28T09:10:34.877Z,84.25
2023-02-28T09:15:43.398Z,84.61
2023-02-28T09:20:46.875Z,83.16
2023-02-28T09:25:52.006Z,80.70
2023-02-28T09:30:58.252Z,77.46
2023-02-28T09:36:03.081Z,76.71
2023-02-28T09:41:23.086Z,76.66
2023-02-28T09:46:35.455Z,77.91
2023-02-28T09:51:47.409Z,76.74
2023-02-28T09:56:54.173Z,75.86
2023-02-28T10:02:05.929Z,75.05
2023-02-28T10:07:20.333Z,73.42
2023-02-28T10:12:23.668Z,74.12
2023-02-28T10:17:49.462Z,72.95
2023-02-28T10:23:08.268Z,72.22
2023-02-28T10:28:13.425Z,72.80
2023-02-28T10:33:23.666Z,72.83
2023-02-28T10:38:29.473Z,70.92
2023-02-28T10:43:32.568Z,72.04
2023-02-28T10:48:46.425Z,70.08
2023-02-28T10:54:01.584Z,68.06
2023-02-28T10:59:25.572Z,68.38
2023-02-28T11:04:40.633Z,69.14
2023-02-28T11:09:45.170Z,70.58
2023-02-28T11:14:51.172Z,71.95
2023-02-28T11:20:03.386Z,71.70
2023-02-28T11:25:12.368Z,68.56
2023-02-28T11:30:36.642Z,73.74
2023-02-28T11:35:41.676Z,71.95
2023-02-28T11:40:50.500Z,70.09
2023-02-28T11:46:08.439Z,71.74
2023-02-28T11:51:21.422Z,69.62
2023-02-28T11:56:31.956Z,68.53
2023-02-28T12:01:56.918Z,68.39
2023-02-28T12:07:13.984Z,67.42
2023-02-28T12:12:39.269Z,66.95
2023-02-28T12:17:57.453Z,68.56
2023-02-28T12:23:24.301Z,63.24
2023-02-28T12:28:32.293Z,64.45
2023-02-28T12:33:39.701Z,64.56
2023-02-28T12:38:47.381Z,65.21
2023-02-28T12:43:58.137Z,65.73
2023-02-28T12:49:06.826Z,61.33
2023-02-28T12:54:25.844Z,64.09
2023-02-28T12:59:37.305Z,61.81
2023-02-28T13:05:20.948Z,65.15
2023-02-28T13:10:42.310Z,63.23
2023-02-28T13:16:11.995Z,62.20
2023-02-28T13:21:25.513Z,61.74
2023-02-28T13:27:06.032Z,63.31
2023-02-28T13:32:38.345Z,62.73
2023-02-28T13:37:48.291Z,61.64
2023-02-28T13:42:57.870Z,60.57
2023-02-28T13:48:28.904Z,67.40
2023-02-28T13:53:56.051Z,60.29
2023-02-28T13:59:09.464Z,63.43
2023-02-28T14:04:47.302Z,67.14
2023-02-28T14:10:06.402Z,63.78
2023-02-28T14:15:41.205Z,61.00
2023-02-28T14:20:48.922Z,65.81
2023-02-28T14:26:04.492Z,62.03
2023-02-28T14:31:15.327Z,62.78
2023-02-28T14:36:28.921Z,66.47
2023-02-28T14:41:37.817Z,65.23
2023-02-28T14:46:43.533Z,65.84
2023-02-28T14:51:48.455Z,65.74
2023-02-28T14:56:54.338Z,64.06
2023-02-28T15:02:23.959Z,64.87
2023-02-28T15:07:31.598Z,68.43
2023-02-28T15:12:38.787Z,67.63
2023-02-28T15:17:50.281Z,71.58
2023-02-28T15:22:58.935Z,65.43
2023-02-28T15:28:02.087Z,70.26
2023-02-28T15:33:17.396Z,68.72
2023-02-28T15:38:25.912Z,69.76
2023-02-28T15:43:33.126Z,68.86
2023-02-28T15:48:39.056Z,70.32
2023-02-28T15:53:49.393Z,71.08
2023-02-28T15:58:55.182Z,69.25
2023-02-28T16:04:02.356Z,70.64
2023-02-28T16:09:09.310Z,70.85
2023-02-28T16:14:18.662Z,69.92
2023-02-28T16:19:24.704Z,71.54
2023-02-28T16:24:29.362Z,72.32
2023-02-28T16:29:36.394Z,72.12
2023-02-28T16:34:41.124Z,72.19
2023-02-28T16:39:50.369Z,74.11
2023-02-28T16:44:55.189Z,73.50
2023-02-28T16:49:58.172Z,74.55
2023-02-28T16:55:02.865Z,74.90
2023-02-28T17:00:08.861Z,75.25
2023-02-28T17:05:33.409Z,75.54
2023-02-28T17:10:57.336Z,75.64
2023-02-28T17:16:04.409Z,79.05
2023-02-28T17:21:15.468Z,77.16
2023-02-28T17:26:22.172Z,77.28
2023-02-28T17:31:25.420Z,77.73
2023-02-28T17:36:31.693Z,78.17
2023-02-28T17:41:44.680Z,82.70
2023-02-28T17:46:52.255Z,82.32
2023-02-28T17:51:55.058Z,80.27
2023-02-28T17:56:59.719Z,79.24
2023-02-28T18:02:03.197Z,79.78
2023-02-28T18:07:13.808Z,79.93
2023-02-28T18:12:18.434Z,80.56
2023-02-28T18:17:23.859Z,80.21
2023-02-28T18:22:27.119Z,81.23
2023-02-28T18:27:34.723Z,80.02
2023-02-28T18:32:43.603Z,80.93
2023-02-28T18:37:47.357Z,80.43
2023-02-28T18:42:56.019Z,80.76
2023-02-28T18:48:16.493Z,81.59
2023-02-28T18:53:38.182Z,82.92
2023-02-28T18:58:45.580Z,82.29
2023-02-28T19:03:51.700Z,82.76
2023-02-28T19:08:58.490Z,82.64
2023-02-28T19:14:02.949Z,83.38
2023-02-28T19:19:06.324Z,83.94
2023-02-28T19:24:10.643Z,84.49
2023-02-28T19:29:15.037Z,84.25
2023-02-28T19:34:18.388Z,85.36
2023-02-28T19:39:21.420Z,85.49
2023-02-28T19:44:26.176Z,85.50
2023-02-28T19:49:29.967Z,86.18
2023-02-28T19:54:34.693Z,86.92
2023-02-28T19:59:40.072Z,86.73
2023-02-28T20:04:43.523Z,87.09
2023-02-28T20:09:46.968Z,88.48
2023-02-28T20:14:51.139Z,89.12
2023-02-28T20:19:53.952Z,89.19
2023-02-28T20:25:00.591Z,90.14
2023-02-28T20:30:07.906Z,89.80
2023-02-28T20:35:11.885Z,89.32
2023-02-28T20:40:15.458Z,90.12
2023-02-28T20:45:19.816Z,90.64
2023-02-28T20:50:22.766Z,90.72
2023-02-28T20:55:26.991Z,90.98
2023-02-28T21:00:32.636Z,91.53
2023-02-28T21:05:35.472Z,91.35
2023-02-28T21:10:38.300Z,93.05
2023-02-28T21:15:42.545Z,94.80
2023-02-28T21:20:45.555Z,94.21
2023-02-28T21:25:48.424Z,94.73
2023-02-28T21:30:52.622Z,94.99
2023-02-28T21:36:04.815Z,95.03
2023-02-28T21:41:12.426Z,94.94
2023-02-28T21:46:19.447Z,95.46
2023-02-28T21:51:24.812Z,95.48
2023-02-28T21:56:29.902Z,96.20
2023-02-28T22:01:38.972Z,95.91
2023-02-28T22:06:45.948Z,97.39
2023-02-28T22:11:48.952Z,96.96
2023-02-28T22:16:55.174Z,97.04
2023-02-28T22:22:04.892Z,97.95
2023-02-28T22:27:08.079Z,97.93
2023-02-28T22:32:34.243Z,97.86
2023-02-28T22:37:38.636Z,97.55
2023-02-28T22:42:41.927Z,97.76
2023-02-28T22:47:48.977Z,97.84
2023-02-28T22:52:51.878Z,97.34
2023-02-28T22:57:54.750Z,97.26
2023-02-28T23:03:19.716Z,97.43
2023-02-28T23:08:23.132Z,97.23
2023-02-28T23:13:25.912Z,97.04
2023-02-28T23:18:30.000Z,96.91
2023-02-28T23:23:32.713Z,96.85
2023-02-28T23:28:35.753Z,97.56
2023-02-28T23:33:40.223Z,98.37
2023-02-28T23:38:47.782Z,98.40
2023-02-28T23:43:53.185Z,98.63
2023-02-28T23:49:05.570Z,99.03
2023-02-28T23:54:08.575Z,98.58
2023-02-28T23:59:11.383Z,98.43
